Time;durP1;ratioP1;P1;durP2;ratioP2;P2;SDS_P1;SDS_P2;PMS_P1;PMS_P2;Temp;Humidity;BMP_temperature;BMP_pressure;BME280_temperature;BME280_humidity;BME280_pressure;Samples;Min_cycle;Max_cycle;Signal;HPM_P1;HPM_P2
2021/03/29 00:00:49;;;;;;;4.37;1.90;;;;;;;;;;5064025;28;20215;-75
2021/03/29 00:03:54;;;;;;;5.70;2.37;;;;;;;;;;5073564;28;20195;-75
2021/03/29 00:07:00;;;;;;;3.60;2.17;;;;;;;;;;5061768;28;20176;-75
2021/03/29 00:10:07;;;;;;;4.93;2.50;;;;;;;;;;5055817;28;20192;-75
2021/03/29 00:13:14;;;;;;;4.13;2.00;;;;;;;;;;5053659;28;20583;-75
2021/03/29 00:16:21;;;;;;;3.23;2.13;;;;;;;;;;5053849;28;20196;-75
2021/03/29 00:19:30;;;;;;;4.23;2.23;;;;;;;;;;5065284;28;20195;-75
2021/03/29 00:22:34;;;;;;;4.03;2.60;;;;;;;;;;5070941;28;20274;-75
2021/03/29 00:25:38;;;;;;;4.77;2.60;;;;;;;;;;5070876;28;20191;-75
2021/03/29 00:28:43;;;;;;;5.17;2.40;;;;;;;;;;5053319;28;20196;-75
2021/03/29 00:31:47;;;;;;;4.17;2.50;;;;;;;;;;5042358;28;20203;-75
2021/03/29 00:34:52;;;;;;;5.80;2.37;;;;;;;;;;5053389;28;20172;-75
2021/03/29 00:37:58;;;;;;;6.50;2.60;;;;;;;;;;5055380;28;20562;-75
2021/03/29 00:41:09;;;;;;;3.77;2.03;;;;;;;;;;5058868;28;20682;-75
2021/03/29 00:44:14;;;;;;;4.13;2.07;;;;;;;;;;5071237;28;20638;-75
2021/03/29 00:47:18;;;;;;;3.77;2.17;;;;;;;;;;5073085;28;20191;-75
2021/03/29 00:50:48;;;;;;;9.23;2.27;;;;;;;;;;5060628;28;20176;-75
2021/03/29 00:53:56;;;;;;;5.03;2.00;;;;;;;;;;5047960;28;20195;-75
2021/03/29 00:57:02;;;;;;;3.30;2.10;;;;;;;;;;5053439;28;20234;-75
2021/03/29 01:00:16;;;;;;;5.33;2.30;;;;;;;;;;5060855;28;20574;-75
2021/03/29 01:03:28;;;;;;;4.60;2.50;;;;;;;;;;5052154;28;20219;-75
2021/03/29 01:06:42;;;;;;;3.47;2.40;;;;;;;;;;5055225;28;20191;-74
2021/03/29 01:09:47;;;;;;;4.40;2.10;;;;;;;;;;5067620;28;20658;-75
2021/03/29 01:12:52;;;;;;;2.70;2.00;;;;;;;;;;5071151;28;20577;-73
2021/03/29 01:15:59;;;;;;;4.60;2.30;;;;;;;;;;5071753;28;20187;-73
2021/03/29 01:19:09;;;;;;;5.97;2.80;;;;;;;;;;5071506;28;20542;-74
2021/03/29 01:22:16;;;;;;;4.87;2.43;;;;;;;;;;5067655;28;20650;-75
2021/03/29 01:25:49;;;;;;;5.47;2.60;;;;;;;;;;5069468;28;20183;-75
2021/03/29 01:28:53;;;;;;;4.17;2.30;;;;;;;;;;5073058;28;20542;-75
2021/03/29 01:32:01;;;;;;;4.10;2.50;;;;;;;;;;5060154;28;20641;-75
2021/03/29 01:35:11;;;;;;;3.53;2.57;;;;;;;;;;5071770;28;20550;-75
2021/03/29 01:38:16;;;;;;;3.83;2.50;;;;;;;;;;5018091;28;20953;-74
2021/03/29 01:41:21;;;;;;;5.83;2.77;;;;;;;;;;5040429;28;21156;-75
2021/03/29 01:44:26;;;;;;;5.63;3.10;;;;;;;;;;5040649;28;20539;-75
2021/03/29 01:47:31;;;;;;;4.87;2.83;;;;;;;;;;5043292;28;20593;-75
2021/03/29 01:50:39;;;;;;;8.13;2.70;;;;;;;;;;5072685;28;20542;-75
2021/03/29 01:53:45;;;;;;;5.13;2.60;;;;;;;;;;5056714;28;21147;-75
2021/03/29 01:56:49;;;;;;;4.77;2.53;;;;;;;;;;5046839;28;20594;-75
2021/03/29 01:59:53;;;;;;;4.33;2.50;;;;;;;;;;5075979;28;20593;-75
2021/03/29 02:03:08;;;;;;;6.53;2.50;;;;;;;;;;5075989;28;20622;-74
2021/03/29 02:06:12;;;;;;;6.13;3.07;;;;;;;;;;5060816;28;20594;-74
2021/03/29 02:09:17;;;;;;;6.67;2.47;;;;;;;;;;5075217;28;20968;-74
2021/03/29 02:12:23;;;;;;;4.37;2.70;;;;;;;;;;5075494;28;20653;-75
2021/03/29 02:15:28;;;;;;;4.50;2.50;;;;;;;;;;5056444;28;20534;-75
2021/03/29 02:18:40;;;;;;;6.07;2.63;;;;;;;;;;5056901;28;20586;-75
2021/03/29 02:21:45;;;;;;;5.57;2.67;;;;;;;;;;5067663;28;21211;-75
2021/03/29 02:24:49;;;;;;;3.97;2.57;;;;;;;;;;5061684;28;21151;-75
2021/03/29 02:27:55;;;;;;;3.93;2.47;;;;;;;;;;5063406;28;20546;-75
2021/03/29 02:31:00;;;;;;;4.03;2.17;;;;;;;;;;5075561;28;20533;-75
2021/03/29 02:34:05;;;;;;;3.77;2.83;;;;;;;;;;5063512;28;20545;-74
2021/03/29 02:37:10;;;;;;;5.00;2.40;;;;;;;;;;5055491;28;21081;-74
2021/03/29 02:40:15;;;;;;;5.33;2.30;;;;;;;;;;5036925;28;20578;-75
2021/03/29 02:43:22;;;;;;;5.20;2.60;;;;;;;;;;5055325;28;20614;-75
2021/03/29 02:46:29;;;;;;;6.37;2.60;;;;;;;;;;5055422;28;20591;-75
2021/03/29 02:49:34;;;;;;;4.47;2.57;;;;;;;;;;5057160;28;20578;-75
2021/03/29 02:52:43;;;;;;;4.20;2.20;;;;;;;;;;5055193;28;20642;-75
2021/03/29 02:55:48;;;;;;;6.03;2.50;;;;;;;;;;5043018;28;20535;-75
2021/03/29 02:58:58;;;;;;;5.33;2.47;;;;;;;;;;5055096;28;20960;-75
2021/03/29 03:02:02;;;;;;;5.73;2.40;;;;;;;;;;5043601;28;20661;-74
2021/03/29 03:05:09;;;;;;;5.93;2.70;;;;;;;;;;5056884;28;20635;-75
2021/03/29 03:08:13;;;;;;;5.87;2.63;;;;;;;;;;5072025;28;20594;-75
2021/03/29 03:11:18;;;;;;;5.70;2.17;;;;;;;;;;5061095;28;20586;-74
2021/03/29 03:14:24;;;;;;;4.97;2.60;;;;;;;;;;5054742;28;21199;-75
2021/03/29 03:17:32;;;;;;;3.90;2.03;;;;;;;;;;5055045;28;20535;-74
2021/03/29 03:20:38;;;;;;;4.27;2.50;;;;;;;;;;5066358;28;21187;-74
2021/03/29 03:23:51;;;;;;;3.80;2.10;;;;;;;;;;5074983;22;20686;-74
2021/03/29 03:26:55;;;;;;;4.37;2.43;;;;;;;;;;5040633;28;20595;-74
2021/03/29 03:29:59;;;;;;;5.67;2.73;;;;;;;;;;5045272;28;20593;-74
2021/03/29 03:33:05;;;;;;;4.93;2.73;;;;;;;;;;5058060;28;21243;-74
2021/03/29 03:36:11;;;;;;;6.10;2.43;;;;;;;;;;5054140;28;20598;-74
2021/03/29 03:39:15;;;;;;;6.33;2.60;;;;;;;;;;5054038;28;20595;-74
2021/03/29 03:42:20;;;;;;;6.43;2.93;;;;;;;;;;5053592;28;21255;-74
2021/03/29 03:45:28;;;;;;;6.53;2.23;;;;;;;;;;5051758;28;20587;-74
2021/03/29 03:48:33;;;;;;;4.37;2.53;;;;;;;;;;5031059;28;20536;-74
2021/03/29 03:51:38;;;;;;;4.47;3.00;;;;;;;;;;5053701;28;20650;-74
2021/03/29 03:54:43;;;;;;;4.43;2.33;;;;;;;;;;5050792;28;20574;-74
2021/03/29 03:57:48;;;;;;;8.93;2.50;;;;;;;;;;5041930;28;20587;-74
2021/03/29 04:00:55;;;;;;;5.63;2.60;;;;;;;;;;5030092;28;20634;-74
2021/03/29 04:03:59;;;;;;;4.73;2.53;;;;;;;;;;5041057;28;20591;-74
2021/03/29 04:07:04;;;;;;;3.93;3.20;;;;;;;;;;5053640;28;20591;-74
2021/03/29 04:10:24;;;;;;;6.07;2.93;;;;;;;;;;5053782;28;20562;-74
2021/03/29 04:13:30;;;;;;;5.97;2.73;;;;;;;;;;5046527;28;20634;-74
2021/03/29 04:16:34;;;;;;;6.00;2.90;;;;;;;;;;5053907;28;20535;-74
2021/03/29 04:19:38;;;;;;;6.07;2.70;;;;;;;;;;5021218;28;21076;-74
2021/03/29 04:22:44;;;;;;;6.10;2.70;;;;;;;;;;5032787;28;20650;-74
2021/03/29 04:25:48;;;;;;;4.53;3.17;;;;;;;;;;5047942;28;20594;-74
2021/03/29 04:28:53;;;;;;;6.33;2.90;;;;;;;;;;5053676;28;20539;-74
2021/03/29 04:31:57;;;;;;;8.40;3.17;;;;;;;;;;5027368;28;21223;-74
2021/03/29 04:35:01;;;;;;;3.63;2.77;;;;;;;;;;5041050;28;20626;-74
2021/03/29 04:38:07;;;;;;;5.97;3.27;;;;;;;;;;5036448;28;21145;-74
2021/03/29 04:41:12;;;;;;;5.30;3.10;;;;;;;;;;5033390;28;20950;-74
2021/03/29 04:44:16;;;;;;;6.80;3.50;;;;;;;;;;5021428;28;21086;-73
2021/03/29 04:47:20;;;;;;;8.90;3.60;;;;;;;;;;5023807;28;20594;-74
2021/03/29 04:50:25;;;;;;;4.80;2.77;;;;;;;;;;5034957;28;20535;-74
2021/03/29 04:53:29;;;;;;;6.20;3.13;;;;;;;;;;5052965;28;20614;-74
2021/03/29 04:56:33;;;;;;;7.70;3.37;;;;;;;;;;5052550;28;21618;-74
2021/03/29 04:59:37;;;;;;;28.03;3.87;;;;;;;;;;5053003;28;20911;-74
2021/03/29 05:02:42;;;;;;;31.37;4.23;;;;;;;;;;5052809;28;20650;-74
2021/03/29 05:05:46;;;;;;;10.43;3.73;;;;;;;;;;5040578;28;20594;-74
2021/03/29 05:08:50;;;;;;;4.93;3.10;;;;;;;;;;5052683;28;20587;-73
2021/03/29 05:11:55;;;;;;;5.93;3.13;;;;;;;;;;5051973;28;20646;-74
2021/03/29 05:14:59;;;;;;;7.67;3.13;;;;;;;;;;5050692;28;20953;-74
2021/03/29 05:18:03;;;;;;;4.43;3.50;;;;;;;;;;5052602;28;21136;-73
2021/03/29 05:21:08;;;;;;;5.37;3.13;;;;;;;;;;5039867;28;20587;-73
2021/03/29 05:24:12;;;;;;;6.60;3.40;;;;;;;;;;5027906;28;20642;-73
2021/03/29 05:27:16;;;;;;;6.90;2.90;;;;;;;;;;5029180;28;21092;-73
2021/03/29 05:30:21;;;;;;;7.80;3.27;;;;;;;;;;5029705;28;20594;-73
2021/03/29 05:33:26;;;;;;;6.80;3.13;;;;;;;;;;5001988;28;20635;-73
2021/03/29 05:36:30;;;;;;;5.30;2.50;;;;;;;;;;5036598;28;20559;-74
2021/03/29 05:39:35;;;;;;;5.53;2.37;;;;;;;;;;5051368;28;20594;-73
2021/03/29 05:42:39;;;;;;;7.67;2.90;;;;;;;;;;5043893;28;20674;-74
2021/03/29 05:45:44;;;;;;;8.17;2.67;;;;;;;;;;5044481;28;20893;-74
2021/03/29 05:48:49;;;;;;;6.20;3.10;;;;;;;;;;5032985;28;20590;-74
2021/03/29 05:51:53;;;;;;;10.87;3.30;;;;;;;;;;5023257;28;20998;-73
2021/03/29 05:54:58;;;;;;;12.87;3.70;;;;;;;;;;5032671;28;21092;-74
2021/03/29 06:01:07;;;;;;;9.77;3.60;;;;;;;;;;5038448;28;20622;-74
2021/03/29 06:04:13;;;;;;;11.90;3.43;;;;;;;;;;5043289;28;20583;-74
2021/03/29 06:07:21;;;;;;;10.00;3.33;;;;;;;;;;5021132;28;20172;-74
2021/03/29 06:10:34;;;;;;;6.30;2.73;;;;;;;;;;5043609;28;20595;-74
2021/03/29 06:13:43;;;;;;;5.97;2.60;;;;;;;;;;5024130;28;20540;-74
2021/03/29 06:16:54;;;;;;;12.30;4.23;;;;;;;;;;5030232;28;20188;-73
2021/03/29 06:20:00;;;;;;;17.33;7.03;;;;;;;;;;5056152;28;20623;-73
2021/03/29 06:23:09;;;;;;;10.53;4.10;;;;;;;;;;5020409;28;20236;-74
2021/03/29 06:26:20;;;;;;;7.43;4.13;;;;;;;;;;5032069;28;20643;-74
2021/03/29 06:29:24;;;;;;;4.70;3.53;;;;;;;;;;5043400;28;20177;-74
2021/03/29 06:32:29;;;;;;;7.60;3.73;;;;;;;;;;5016218;28;20207;-74
2021/03/29 06:35:41;;;;;;;10.47;3.90;;;;;;;;;;5055385;28;20192;-74
2021/03/29 06:38:46;;;;;;;5.40;3.60;;;;;;;;;;5055205;28;20623;-74
2021/03/29 06:41:55;;;;;;;8.63;4.30;;;;;;;;;;5030751;28;20224;-74
2021/03/29 06:45:27;;;;;;;6.03;3.60;;;;;;;;;;5043412;28;20184;-74
2021/03/29 06:48:36;;;;;;;7.20;3.27;;;;;;;;;;5031713;28;20180;-74
2021/03/29 06:51:42;;;;;;;6.07;3.17;;;;;;;;;;5042865;28;20224;-73
2021/03/29 06:54:47;;;;;;;4.73;3.37;;;;;;;;;;5031321;28;20199;-74
2021/03/29 06:58:03;;;;;;;8.03;4.17;;;;;;;;;;5042820;28;20547;-74
2021/03/29 07:01:15;;;;;;;5.60;2.90;;;;;;;;;;5015852;28;20197;-74
2021/03/29 07:04:24;;;;;;;5.60;3.17;;;;;;;;;;5031140;28;20185;-74
2021/03/29 07:07:30;;;;;;;7.17;3.00;;;;;;;;;;5042618;28;20187;-74
2021/03/29 07:10:34;;;;;;;3.33;2.63;;;;;;;;;;5020371;28;20630;-74
2021/03/29 07:13:40;;;;;;;3.80;2.83;;;;;;;;;;5042153;28;20184;-74
2021/03/29 07:16:45;;;;;;;4.00;2.57;;;;;;;;;;5031138;28;20184;-74
2021/03/29 07:19:50;;;;;;;6.73;2.83;;;;;;;;;;5041429;28;20192;-73
2021/03/29 07:22:54;;;;;;;6.07;2.77;;;;;;;;;;5054067;28;20219;-74
2021/03/29 07:25:59;;;;;;;3.73;3.00;;;;;;;;;;5054642;28;20188;-73
2021/03/29 07:29:24;;;;;;;6.73;2.77;;;;;;;;;;5054276;28;20639;-74
2021/03/29 07:32:34;;;;;;;5.70;2.20;;;;;;;;;;5040322;28;20216;-74
2021/03/29 07:35:45;;;;;;;5.13;2.87;;;;;;;;;;5041887;28;20196;-73
2021/03/29 07:38:55;;;;;;;4.13;2.60;;;;;;;;;;5030397;28;20192;-73
2021/03/29 07:42:25;;;;;;;7.50;6.70;;;;;;;;;;5035573;28;20227;-74
2021/03/29 07:45:35;;;;;;;6.97;4.07;;;;;;;;;;5041433;28;20184;-74
2021/03/29 07:48:42;;;;;;;7.27;3.20;;;;;;;;;;5041516;28;20188;-73
2021/03/29 07:51:46;;;;;;;7.83;2.77;;;;;;;;;;5041678;28;20211;-73
2021/03/29 07:54:51;;;;;;;5.80;3.17;;;;;;;;;;5052365;28;20188;-74
2021/03/29 07:57:56;;;;;;;5.53;2.93;;;;;;;;;;5030752;28;20634;-73
2021/03/29 08:05:56;;;;;;;6.23;2.67;;;;;;;;;;5053511;28;20205;-74
2021/03/29 08:09:00;;;;;;;4.33;3.00;;;;;;;;;;5040739;28;20192;-73
2021/03/29 08:12:05;;;;;;;5.27;3.33;;;;;;;;;;5041388;28;20212;-73
2021/03/29 08:15:10;;;;;;;8.33;7.33;;;;;;;;;;5034040;28;20640;-73
2021/03/29 08:18:14;;;;;;;8.47;4.10;;;;;;;;;;5034339;28;20189;-73
2021/03/29 08:22:02;;;;;;;4.27;3.43;;;;;;;;;;5021403;28;20671;-73
2021/03/29 08:25:29;;;;;;;6.60;2.90;;;;;;;;;;4942650;29;20540;-73
2021/03/29 08:29:07;;;;;;;4.03;2.43;;;;;;;;;;4982364;28;20207;-73
2021/03/29 08:32:31;;;;;;;4.33;2.97;;;;;;;;;;5021560;28;20221;-73
2021/03/29 08:35:37;;;;;;;4.80;3.00;;;;;;;;;;5033970;28;20185;-73
2021/03/29 08:38:41;;;;;;;5.47;2.97;;;;;;;;;;5036273;28;20200;-73
2021/03/29 08:41:45;;;;;;;5.30;3.17;;;;;;;;;;5040888;28;20224;-73
2021/03/29 08:44:50;;;;;;;8.50;3.23;;;;;;;;;;5041034;28;20195;-73
2021/03/29 08:48:01;;;;;;;6.67;4.23;;;;;;;;;;5041123;28;20199;-73
2021/03/29 08:51:05;;;;;;;7.33;3.70;;;;;;;;;;5052879;28;20525;-73
2021/03/29 08:54:11;;;;;;;11.67;4.47;;;;;;;;;;5028227;28;20191;-73
2021/03/29 08:57:15;;;;;;;6.33;3.43;;;;;;;;;;5039790;28;20695;-72
2021/03/29 09:00:26;;;;;;;6.80;2.87;;;;;;;;;;5052951;28;20192;-72
2021/03/29 09:03:30;;;;;;;5.87;3.07;;;;;;;;;;5029522;28;20220;-72
2021/03/29 09:06:35;;;;;;;4.93;2.50;;;;;;;;;;5028797;28;20191;-73
2021/03/29 09:09:39;;;;;;;5.77;2.53;;;;;;;;;;5040401;28;20184;-73
2021/03/29 09:12:45;;;;;;;10.03;2.90;;;;;;;;;;5009807;28;20224;-73
2021/03/29 09:15:51;;;;;;;6.53;2.33;;;;;;;;;;5021089;28;20177;-74
2021/03/29 09:18:55;;;;;;;9.07;2.50;;;;;;;;;;5022528;28;20208;-74
2021/03/29 09:22:02;;;;;;;6.97;3.50;;;;;;;;;;5052441;28;20253;-74
2021/03/29 09:25:07;;;;;;;27.93;25.47;;;;;;;;;;5059618;23;20231;-72
2021/03/29 09:28:32;;;;;;;9.83;8.93;;;;;;;;;;5086832;28;20193;-71
2021/03/29 09:31:39;;;;;;;6.43;2.73;;;;;;;;;;5076716;28;20216;-71
2021/03/29 09:34:46;;;;;;;5.23;2.30;;;;;;;;;;5059936;28;20191;-71
2021/03/29 09:37:50;;;;;;;4.80;2.43;;;;;;;;;;5073213;28;20176;-71
2021/03/29 09:40:54;;;;;;;5.93;1.97;;;;;;;;;;5072652;28;20183;-71
2021/03/29 09:44:04;;;;;;;7.50;1.87;;;;;;;;;;5072504;28;20550;-71
2021/03/29 09:47:09;;;;;;;3.63;1.60;;;;;;;;;;5072333;28;20192;-71
2021/03/29 09:50:13;;;;;;;7.37;1.80;;;;;;;;;;5072627;28;20184;-71
2021/03/29 09:53:22;;;;;;;5.10;1.93;;;;;;;;;;5072528;28;20223;-71
2021/03/29 09:56:31;;;;;;;8.73;1.87;;;;;;;;;;5072277;28;20192;-71
2021/03/29 09:59:36;;;;;;;7.67;1.93;;;;;;;;;;5060040;28;20646;-71
2021/03/29 10:02:41;;;;;;;4.73;1.87;;;;;;;;;;5072310;28;20563;-72
2021/03/29 10:05:46;;;;;;;5.97;1.90;;;;;;;;;;5072353;28;20635;-71
2021/03/29 10:09:07;;;;;;;14.57;2.10;;;;;;;;;;5072705;28;20541;-71
2021/03/29 10:12:23;;;;;;;4.77;1.53;;;;;;;;;;5060068;28;20213;-71
2021/03/29 10:15:31;;;;;;;7.70;1.70;;;;;;;;;;5072110;28;20188;-71
2021/03/29 10:18:35;;;;;;;6.47;1.60;;;;;;;;;;5055127;28;20516;-71
2021/03/29 10:22:00;;;;;;;7.10;1.70;;;;;;;;;;5055183;28;20212;-71
2021/03/29 10:25:17;;;;;;;5.30;1.50;;;;;;;;;;5059280;28;20197;-71
2021/03/29 10:28:21;;;;;;;4.47;1.60;;;;;;;;;;5063365;28;20187;-71
2021/03/29 10:31:27;;;;;;;5.20;1.93;;;;;;;;;;5075865;28;20187;-71
2021/03/29 10:34:31;;;;;;;5.07;1.63;;;;;;;;;;5076124;28;20191;-71
2021/03/29 10:37:35;;;;;;;5.33;1.70;;;;;;;;;;5062331;28;20199;-71
2021/03/29 10:40:39;;;;;;;4.53;1.67;;;;;;;;;;5062895;28;20523;-71
2021/03/29 10:43:43;;;;;;;5.43;1.50;;;;;;;;;;5068275;28;20560;-72
2021/03/29 10:46:47;;;;;;;7.20;1.73;;;;;;;;;;5062677;28;20182;-71
2021/03/29 10:49:53;;;;;;;5.00;1.90;;;;;;;;;;5074389;28;20190;-72
2021/03/29 10:52:57;;;;;;;3.80;1.40;;;;;;;;;;5073349;28;20218;-72
2021/03/29 10:56:02;;;;;;;3.77;1.70;;;;;;;;;;5075448;28;20186;-71
2021/03/29 10:59:07;;;;;;;5.23;1.70;;;;;;;;;;5051645;28;20178;-71
2021/03/29 11:02:12;;;;;;;7.03;1.80;;;;;;;;;;5075192;28;20238;-71
2021/03/29 11:05:16;;;;;;;4.10;1.70;;;;;;;;;;5062037;28;20187;-71
2021/03/29 11:08:20;;;;;;;6.43;1.80;;;;;;;;;;5074835;28;20184;-71
2021/03/29 11:11:24;;;;;;;20.10;2.07;;;;;;;;;;5074789;28;20185;-70
2021/03/29 11:14:28;;;;;;;3.70;1.60;;;;;;;;;;5075149;28;20512;-71
2021/03/29 11:17:34;;;;;;;5.90;1.87;;;;;;;;;;5071027;28;20208;-71
2021/03/29 11:20:38;;;;;;;5.90;1.87;;;;;;;;;;5054876;28;20185;-71
2021/03/29 11:23:43;;;;;;;6.20;1.90;;;;;;;;;;5065319;28;20223;-72
2021/03/29 11:26:47;;;;;;;3.70;1.60;;;;;;;;;;5074563;28;20541;-71
2021/03/29 11:29:52;;;;;;;4.23;1.77;;;;;;;;;;5062162;28;20169;-71
2021/03/29 11:32:56;;;;;;;5.37;1.70;;;;;;;;;;5062567;28;20211;-71
2021/03/29 11:36:00;;;;;;;2.97;1.27;;;;;;;;;;5074711;28;20184;-71
2021/03/29 11:39:10;;;;;;;4.63;1.50;;;;;;;;;;5074663;28;20187;-71
2021/03/29 11:42:14;;;;;;;4.07;1.70;;;;;;;;;;5074221;28;20216;-71
2021/03/29 11:45:18;;;;;;;3.80;1.30;;;;;;;;;;5074426;28;20207;-71
2021/03/29 11:48:23;;;;;;;5.87;1.70;;;;;;;;;;5059145;28;20662;-71
2021/03/29 11:51:27;;;;;;;4.13;1.63;;;;;;;;;;5054128;28;20180;-71
2021/03/29 11:54:31;;;;;;;4.03;1.77;;;;;;;;;;5072750;28;20180;-71
2021/03/29 11:57:37;;;;;;;5.33;1.90;;;;;;;;;;5073319;28;20188;-71
2021/03/29 12:03:53;;;;;;;4.47;1.60;;;;;;;;;;5073628;28;20217;-71
2021/03/29 12:07:07;;;;;;;4.90;1.80;;;;;;;;;;5061495;28;20189;-71
2021/03/29 12:13:35;;;;;;;4.17;1.60;;;;;;;;;;5054031;28;20185;-71
2021/03/29 12:16:44;;;;;;;7.63;2.10;;;;;;;;;;5059008;28;20181;-71
2021/03/29 12:19:48;;;;;;;3.70;2.00;;;;;;;;;;5053921;28;20176;-71
2021/03/29 12:22:52;;;;;;;5.50;1.90;;;;;;;;;;5053491;28;20218;-71
2021/03/29 12:25:58;;;;;;;6.80;2.00;;;;;;;;;;5059255;28;20690;-71
2021/03/29 12:29:07;;;;;;;4.27;1.80;;;;;;;;;;5073334;28;20193;-71
2021/03/29 12:32:14;;;;;;;4.33;1.70;;;;;;;;;;5061021;28;20219;-71
2021/03/29 12:35:21;;;;;;;7.93;2.10;;;;;;;;;;5073148;28;20188;-71
2021/03/29 12:38:27;;;;;;;4.90;2.07;;;;;;;;;;5053667;28;20177;-71
2021/03/29 12:41:38;;;;;;;4.00;2.00;;;;;;;;;;5052916;28;20213;-71
2021/03/29 12:44:42;;;;;;;4.40;1.73;;;;;;;;;;5072578;28;20225;-71
2021/03/29 12:47:46;;;;;;;6.47;1.67;;;;;;;;;;5072941;28;20191;-71
2021/03/29 12:50:50;;;;;;;5.13;2.10;;;;;;;;;;5060854;28;20185;-71
2021/03/29 12:54:09;;;;;;;4.20;1.83;;;;;;;;;;5067121;28;20620;-71
2021/03/29 12:57:13;;;;;;;8.20;2.13;;;;;;;;;;5063850;28;20193;-71
2021/03/29 13:00:20;;;;;;;4.27;1.97;;;;;;;;;;5073337;28;20523;-71
2021/03/29 13:03:32;;;;;;;5.10;1.87;;;;;;;;;;5072401;28;20223;-71
2021/03/29 13:07:05;;;;;;;5.73;1.97;;;;;;;;;;5072463;28;20580;-71
2021/03/29 13:10:14;;;;;;;5.20;1.57;;;;;;;;;;5053275;28;20188;-71
2021/03/29 13:13:19;;;;;;;4.03;1.53;;;;;;;;;;5071580;28;20689;-71
2021/03/29 13:16:23;;;;;;;3.90;1.77;;;;;;;;;;5072968;28;20176;-71
2021/03/29 13:19:28;;;;;;;6.03;2.00;;;;;;;;;;5071933;28;20653;-71
2021/03/29 13:22:32;;;;;;;5.37;1.87;;;;;;;;;;5072402;28;20225;-70
2021/03/29 13:25:36;;;;;;;4.53;2.10;;;;;;;;;;5072719;28;20695;-70
2021/03/29 13:28:42;;;;;;;3.13;1.90;;;;;;;;;;5073100;28;20186;-71
2021/03/29 13:31:46;;;;;;;6.50;2.87;;;;;;;;;;5072570;28;20217;-71
2021/03/29 13:34:50;;;;;;;6.30;1.90;;;;;;;;;;5072896;28;20181;-71
2021/03/29 13:37:55;;;;;;;5.10;1.83;;;;;;;;;;5073020;28;20509;-70
2021/03/29 13:41:03;;;;;;;9.27;2.80;;;;;;;;;;5070886;28;20196;-70
2021/03/29 13:44:08;;;;;;;3.60;1.97;;;;;;;;;;5072537;28;20207;-70
2021/03/29 13:47:13;;;;;;;4.60;2.10;;;;;;;;;;5054013;28;20198;-70
2021/03/29 13:50:19;;;;;;;2.97;1.80;;;;;;;;;;5040503;28;20176;-70
2021/03/29 13:53:26;;;;;;;4.37;1.87;;;;;;;;;;5054877;28;20219;-71
2021/03/29 13:56:30;;;;;;;3.53;2.03;;;;;;;;;;5056710;28;20168;-70
2021/03/29 13:59:36;;;;;;;6.43;2.27;;;;;;;;;;5056540;28;20177;-70
2021/03/29 14:02:46;;;;;;;2.93;1.57;;;;;;;;;;5075451;28;20586;-70
2021/03/29 14:05:50;;;;;;;4.23;1.73;;;;;;;;;;5076085;28;20217;-71
2021/03/29 14:08:55;;;;;;;7.33;1.70;;;;;;;;;;5075222;28;20186;-71
2021/03/29 14:12:00;;;;;;;8.80;2.53;;;;;;;;;;5075896;28;20700;-71
2021/03/29 14:15:05;;;;;;;6.40;1.50;;;;;;;;;;5076271;28;20517;-71
2021/03/29 14:18:10;;;;;;;5.17;1.60;;;;;;;;;;5063926;28;20175;-71
2021/03/29 14:21:25;;;;;;;8.83;1.60;;;;;;;;;;5076104;28;20515;-70
2021/03/29 14:24:29;;;;;;;2.83;1.40;;;;;;;;;;5080179;28;20224;-70
2021/03/29 14:27:34;;;;;;;2.03;1.43;;;;;;;;;;5063516;28;20173;-70
2021/03/29 14:30:38;;;;;;;4.80;1.50;;;;;;;;;;5075714;28;20176;-71
2021/03/29 14:33:46;;;;;;;3.77;1.30;;;;;;;;;;5075613;28;20633;-70
2021/03/29 14:37:12;;;;;;;5.23;3.17;;;;;;;;;;5063057;28;20534;-71
2021/03/29 14:46:31;;;;;;;2.23;1.20;;;;;;;;;;5075802;28;20180;-70
2021/03/29 14:49:36;;;;;;;3.20;1.50;;;;;;;;;;5063416;28;20180;-70
2021/03/29 14:52:41;;;;;;;5.37;1.80;;;;;;;;;;5075343;28;20217;-70
2021/03/29 14:55:45;;;;;;;5.73;1.70;;;;;;;;;;5075210;28;20165;-70
2021/03/29 14:58:50;;;;;;;4.93;1.60;;;;;;;;;;5074603;28;20193;-70
2021/03/29 15:02:01;;;;;;;3.40;1.80;;;;;;;;;;5074323;28;20566;-70
2021/03/29 15:05:06;;;;;;;5.27;1.60;;;;;;;;;;5043173;28;20217;-70
2021/03/29 15:08:10;;;;;;;6.07;1.60;;;;;;;;;;5055441;28;20184;-70
2021/03/29 15:11:15;;;;;;;3.63;1.60;;;;;;;;;;5075053;28;20545;-70
2021/03/29 15:14:19;;;;;;;7.40;1.83;;;;;;;;;;5075144;28;20176;-70
2021/03/29 15:17:24;;;;;;;4.17;2.07;;;;;;;;;;5075140;28;20179;-70
2021/03/29 15:20:28;;;;;;;3.47;1.80;;;;;;;;;;5062624;28;20175;-70
2021/03/29 15:23:32;;;;;;;4.83;2.00;;;;;;;;;;5075154;28;20219;-70
2021/03/29 15:26:37;;;;;;;2.10;1.60;;;;;;;;;;5090401;22;20231;-73
2021/03/29 15:29:41;;;;;;;7.10;1.70;;;;;;;;;;5074912;28;20547;-73
2021/03/29 15:32:46;;;;;;;4.70;1.80;;;;;;;;;;5057071;28;20700;-73
2021/03/29 15:35:51;;;;;;;4.70;1.80;;;;;;;;;;5025940;28;20179;-73
2021/03/29 15:38:56;;;;;;;3.83;1.90;;;;;;;;;;5046896;28;20188;-73
2021/03/29 15:42:00;;;;;;;4.40;2.10;;;;;;;;;;5050665;28;20207;-73
2021/03/29 15:45:06;;;;;;;2.73;2.03;;;;;;;;;;5032439;28;20196;-72
2021/03/29 15:48:11;;;;;;;6.90;2.13;;;;;;;;;;5033246;28;20184;-74
2021/03/29 15:51:15;;;;;;;3.63;1.73;;;;;;;;;;5030569;28;20196;-74
2021/03/29 15:54:20;;;;;;;4.27;2.10;;;;;;;;;;5054156;28;20192;-74
2021/03/29 15:57:30;;;;;;;14.20;2.60;;;;;;;;;;5053359;28;20196;-73
2021/03/29 16:00:34;;;;;;;7.03;2.47;;;;;;;;;;5053998;28;20512;-73
2021/03/29 16:03:41;;;;;;;4.77;1.80;;;;;;;;;;5055961;28;20191;-72
2021/03/29 16:06:45;;;;;;;3.60;1.90;;;;;;;;;;5061329;28;20187;-72
2021/03/29 16:09:50;;;;;;;3.03;1.83;;;;;;;;;;5074053;28;20183;-73
2021/03/29 16:12:54;;;;;;;27.83;2.47;;;;;;;;;;5068343;28;20690;-72
2021/03/29 16:15:58;;;;;;;3.83;1.63;;;;;;;;;;5030413;28;20180;-72
2021/03/29 16:19:02;;;;;;;5.53;2.03;;;;;;;;;;5042636;28;20188;-73
2021/03/29 16:22:07;;;;;;;6.13;1.90;;;;;;;;;;5062839;28;20211;-74
2021/03/29 16:25:19;;;;;;;5.37;2.00;;;;;;;;;;5024634;28;20224;-72
2021/03/29 16:28:23;;;;;;;79.63;5.73;;;;;;;;;;5022139;28;20193;-73
2021/03/29 16:31:28;;;;;;;3.97;1.60;;;;;;;;;;5053559;28;20531;-72
2021/03/29 16:34:32;;;;;;;4.10;1.50;;;;;;;;;;5034427;28;20172;-73
2021/03/29 16:37:36;;;;;;;3.93;1.67;;;;;;;;;;5064050;28;20184;-73
2021/03/29 16:40:41;;;;;;;7.43;1.90;;;;;;;;;;5058012;28;20657;-72
2021/03/29 16:43:47;;;;;;;2.40;1.33;;;;;;;;;;5073491;28;20191;-74
2021/03/29 16:46:52;;;;;;;3.43;1.27;;;;;;;;;;5054251;28;20212;-72
2021/03/29 16:49:56;;;;;;;5.23;1.23;;;;;;;;;;5053620;28;20670;-74
2021/03/29 16:53:01;;;;;;;3.70;1.60;;;;;;;;;;5062661;28;20211;-72
2021/03/29 16:56:05;;;;;;;6.13;1.47;;;;;;;;;;5055010;28;20192;-72
2021/03/29 16:59:11;;;;;;;13.57;2.20;;;;;;;;;;5053550;28;20516;-72
2021/03/29 17:02:15;;;;;;;22.97;2.60;;;;;;;;;;5033795;28;20220;-73
2021/03/29 17:05:19;;;;;;;8.43;1.97;;;;;;;;;;5033804;28;20532;-73
2021/03/29 17:08:24;;;;;;;10.10;1.43;;;;;;;;;;5021728;28;20180;-72
2021/03/29 17:11:28;;;;;;;5.10;1.63;;;;;;;;;;5036181;28;20199;-73
2021/03/29 17:14:32;;;;;;;23.17;2.40;;;;;;;;;;5053636;28;20192;-73
2021/03/29 17:17:37;;;;;;;18.33;2.83;;;;;;;;;;5046894;28;20200;-72
2021/03/29 17:20:41;;;;;;;8.23;1.67;;;;;;;;;;5055745;28;20575;-72
2021/03/29 17:23:46;;;;;;;5.83;1.73;;;;;;;;;;5048573;28;20199;-73
2021/03/29 17:26:50;;;;;;;4.17;1.60;;;;;;;;;;5063000;28;20219;-72
2021/03/29 17:29:55;;;;;;;6.83;1.60;;;;;;;;;;5057699;28;20195;-73
2021/03/29 17:32:59;;;;;;;4.03;1.83;;;;;;;;;;5045179;28;20224;-73
2021/03/29 17:36:03;;;;;;;2.83;1.43;;;;;;;;;;5044658;28;20176;-73
2021/03/29 17:39:08;;;;;;;2.20;1.20;;;;;;;;;;5039825;28;20658;-73
2021/03/29 17:42:12;;;;;;;4.00;1.20;;;;;;;;;;5044143;28;20563;-73
2021/03/29 17:45:17;;;;;;;7.23;1.50;;;;;;;;;;5044138;28;20200;-73
2021/03/29 17:48:21;;;;;;;5.80;1.40;;;;;;;;;;5056391;28;20210;-73
2021/03/29 17:51:25;;;;;;;7.33;1.60;;;;;;;;;;5039592;28;20532;-72
2021/03/29 17:54:30;;;;;;;1.50;1.17;;;;;;;;;;5072851;28;20195;-73
2021/03/29 17:57:35;;;;;;;4.23;1.57;;;;;;;;;;5048818;28;20179;-72
2021/03/29 18:00:39;;;;;;;6.90;1.77;;;;;;;;;;5061383;28;20196;-73
2021/03/29 18:03:44;;;;;;;4.27;1.27;;;;;;;;;;5056473;28;20539;-72
2021/03/29 18:06:48;;;;;;;16.13;2.07;;;;;;;;;;5056419;28;20552;-73
2021/03/29 18:09:53;;;;;;;4.97;1.20;;;;;;;;;;5063641;28;20191;-73
2021/03/29 18:12:58;;;;;;;6.30;1.90;;;;;;;;;;5063832;28;20207;-73
2021/03/29 18:16:03;;;;;;;4.43;1.30;;;;;;;;;;5012775;28;20173;-74
2021/03/29 18:19:07;;;;;;;3.33;1.13;;;;;;;;;;5014820;28;20181;-73
2021/03/29 18:22:11;;;;;;;3.20;1.30;;;;;;;;;;5063525;28;20211;-73
2021/03/29 18:25:17;;;;;;;1.87;1.00;;;;;;;;;;5052053;28;20207;-73
2021/03/29 18:28:22;;;;;;;3.97;1.43;;;;;;;;;;5052420;28;20179;-73
2021/03/29 18:31:26;;;;;;;1.37;1.00;;;;;;;;;;5023770;28;20185;-74
2021/03/29 18:34:31;;;;;;;4.93;1.30;;;;;;;;;;5023548;28;20564;-73
2021/03/29 18:37:35;;;;;;;4.13;1.40;;;;;;;;;;5016791;28;20180;-73
2021/03/29 18:40:41;;;;;;;2.80;1.33;;;;;;;;;;5058941;28;20191;-72
2021/03/29 18:43:47;;;;;;;2.93;1.30;;;;;;;;;;5063531;28;20180;-73
2021/03/29 18:46:52;;;;;;;3.90;1.50;;;;;;;;;;5063105;28;20199;-73
2021/03/29 18:49:56;;;;;;;4.93;1.60;;;;;;;;;;5021343;28;20208;-72
2021/03/29 18:53:00;;;;;;;2.47;1.47;;;;;;;;;;5049666;28;20220;-73
2021/03/29 18:56:14;;;;;;;5.77;1.73;;;;;;;;;;5055513;28;20176;-73
2021/03/29 18:59:18;;;;;;;4.90;1.50;;;;;;;;;;5027060;28;20554;-72